Time;durP1;ratioP1;P1;durP2;ratioP2;P2;SDS_P1;SDS_P2;PMS_P1;PMS_P2;Temp;Humidity;BMP_temperature;BMP_pressure;BME280_temperature;BME280_humidity;BME280_pressure;Samples;Min_cycle;Max_cycle;Signal;HPM_P1;HPM_P2
2024/02/12 00:00:45;;;;;;;5.00;2.73;;;11.30;99.90;;;;;;5024310;28;20431;-25
2024/02/12 00:03:24;;;;;;;4.17;2.73;;;11.30;99.90;;;;;;5032112;28;21357;-26
2024/02/12 00:05:53;;;;;;;7.10;2.53;;;11.30;99.90;;;;;;5040632;28;20435;-25
2024/02/12 00:08:19;;;;;;;4.00;2.83;;;11.20;99.90;;;;;;5041079;28;20434;-26
2024/02/12 00:10:50;;;;;;;2.60;2.40;;;11.20;99.90;;;;;;5026398;28;21052;-26
2024/02/12 00:13:21;;;;;;;3.53;3.00;;;11.30;99.90;;;;;;5051926;28;20482;-25
2024/02/12 00:15:49;;;;;;;5.43;3.17;;;11.20;99.90;;;;;;5027205;28;20407;-25
2024/02/12 00:18:16;;;;;;;3.90;2.80;;;11.20;99.90;;;;;;5023561;28;20798;-26
2024/02/12 00:20:42;;;;;;;2.63;2.37;;;11.30;99.90;;;;;;5024712;28;21166;-26
2024/02/12 00:23:08;;;;;;;3.10;2.80;;;11.30;99.90;;;;;;5021796;28;20462;-25
2024/02/12 00:25:34;;;;;;;2.60;2.40;;;11.20;99.90;;;;;;5022057;28;20423;-25
2024/02/12 00:28:00;;;;;;;8.10;3.23;;;11.20;99.90;;;;;;5005852;28;21051;-26
2024/02/12 00:30:33;;;;;;;3.83;3.00;;;11.20;99.90;;;;;;5120276;22;20489;-33
2024/02/12 00:33:06;;;;;;;5.03;2.57;;;11.20;99.90;;;;;;5058742;28;20523;-34
2024/02/12 00:35:33;;;;;;;2.90;2.60;;;11.20;99.90;;;;;;5057625;28;20414;-31
2024/02/12 00:38:03;;;;;;;4.33;3.10;;;11.20;99.90;;;;;;5062814;28;20463;-35
2024/02/12 00:40:30;;;;;;;5.10;2.37;;;11.20;99.90;;;;;;5053406;28;20427;-36
2024/02/12 00:42:58;;;;;;;5.43;3.20;;;11.20;99.90;;;;;;5052476;28;20427;-35
2024/02/12 00:45:25;;;;;;;4.63;3.20;;;11.20;99.90;;;;;;5056012;28;20424;-39
2024/02/12 00:47:53;;;;;;;2.97;2.67;;;11.20;99.90;;;;;;5056095;28;21096;-37
2024/02/12 00:50:19;;;;;;;3.30;2.80;;;11.20;99.90;;;;;;5039103;28;20457;-38
2024/02/12 00:52:47;;;;;;;3.70;2.80;;;11.20;99.90;;;;;;5058472;28;20522;-38
2024/02/12 00:55:15;;;;;;;3.30;2.73;;;11.20;99.90;;;;;;5039588;28;21673;-37
2024/02/12 00:57:48;;;;;;;4.07;3.10;;;11.20;99.90;;;;;;5008856;28;20428;-34
2024/02/12 01:00:16;;;;;;;3.63;2.90;;;11.20;99.90;;;;;;5029060;28;20414;-40
2024/02/12 01:03:00;;;;;;;4.60;3.30;;;11.20;99.90;;;;;;5035327;28;20462;-36
2024/02/12 01:05:26;;;;;;;5.77;4.10;;;11.20;99.90;;;;;;5057344;28;20982;-37
2024/02/12 01:07:52;;;;;;;3.80;3.30;;;11.20;99.90;;;;;;5056579;28;20442;-33
2024/02/12 01:10:20;;;;;;;3.27;2.90;;;11.20;99.90;;;;;;5059828;28;20465;-39
2024/02/12 01:12:47;;;;;;;6.10;3.60;;;11.20;99.90;;;;;;5042574;28;20453;-36
2024/02/12 01:15:15;;;;;;;4.80;2.97;;;11.10;99.90;;;;;;5040343;28;20529;-36
2024/02/12 01:18:02;;;;;;;3.40;2.80;;;11.20;99.90;;;;;;5054725;28;20425;-37
2024/02/12 01:20:29;;;;;;;3.70;3.10;;;11.20;99.90;;;;;;5058258;28;20820;-38
2024/02/12 01:22:56;;;;;;;5.27;3.10;;;11.10;99.90;;;;;;5059356;28;20437;-37
2024/02/12 01:25:24;;;;;;;3.83;3.00;;;11.10;99.90;;;;;;5023827;28;20491;-32
2024/02/12 01:27:50;;;;;;;3.73;3.20;;;11.10;99.90;;;;;;5039903;28;20429;-38
2024/02/12 01:30:16;;;;;;;3.27;2.90;;;11.10;99.90;;;;;;5038880;28;21373;-36
2024/02/12 01:32:42;;;;;;;2.83;2.63;;;11.20;99.90;;;;;;5057304;28;20450;-31
2024/02/12 01:35:09;;;;;;;5.67;3.20;;;11.10;99.90;;;;;;5066165;28;20422;-32
2024/02/12 01:37:35;;;;;;;3.90;3.40;;;11.10;99.90;;;;;;5056182;28;20476;-36
2024/02/12 01:40:01;;;;;;;4.73;4.10;;;11.10;99.90;;;;;;5051224;28;20436;-38
2024/02/12 01:42:28;;;;;;;4.37;3.33;;;11.10;99.90;;;;;;5050534;28;20522;-38
2024/02/12 01:45:13;;;;;;;5.03;3.43;;;11.10;99.90;;;;;;5074813;28;20452;-34
2024/02/12 01:47:44;;;;;;;3.40;3.00;;;11.10;99.90;;;;;;5054003;28;20442;-37
2024/02/12 01:50:12;;;;;;;4.33;3.87;;;11.10;99.90;;;;;;5052552;28;20572;-34
2024/02/12 01:52:48;;;;;;;6.43;5.07;;;11.10;99.90;;;;;;5039502;28;20437;-32
2024/02/12 01:55:23;;;;;;;4.63;4.10;;;11.10;99.90;;;;;;5057644;28;20449;-31
2024/02/12 01:57:50;;;;;;;5.57;4.80;;;11.10;99.90;;;;;;5041058;28;20524;-31
2024/02/12 02:00:25;;;;;;;6.00;4.93;;;11.10;99.90;;;;;;5060050;28;20976;-31
2024/02/12 02:03:01;;;;;;;6.03;4.60;;;11.10;99.90;;;;;;5060475;28;20447;-36
2024/02/12 02:05:27;;;;;;;7.17;4.93;;;11.10;99.90;;;;;;5059956;28;20877;-36
2024/02/12 02:07:56;;;;;;;5.87;5.23;;;11.10;99.90;;;;;;5060136;28;20422;-33
2024/02/12 02:10:24;;;;;;;7.53;5.83;;;11.10;99.90;;;;;;5041241;28;20546;-38
2024/02/12 02:12:53;;;;;;;7.97;5.30;;;11.10;99.90;;;;;;5062894;28;20941;-32
2024/02/12 02:15:39;;;;;;;10.73;5.90;;;11.10;99.90;;;;;;5035735;28;20474;-32
2024/02/12 02:18:05;;;;;;;8.03;5.10;;;11.10;99.90;;;;;;5064916;28;20422;-31
2024/02/12 02:20:36;;;;;;;6.80;5.33;;;11.10;99.90;;;;;;5063835;28;20436;-33
2024/02/12 02:23:07;;;;;;;7.93;5.70;;;11.10;99.90;;;;;;5065094;28;20956;-33
2024/02/12 02:25:33;;;;;;;9.83;7.10;;;11.10;99.90;;;;;;5063443;28;20426;-34
2024/02/12 02:28:04;;;;;;;10.23;7.87;;;11.10;99.90;;;;;;5063954;28;20429;-37
2024/02/12 02:30:30;;;;;;;8.30;6.33;;;11.00;99.90;;;;;;5062978;28;20469;-38
2024/02/12 02:32:56;;;;;;;8.20;6.00;;;11.10;99.90;;;;;;5062846;28;20442;-36
2024/02/12 02:35:24;;;;;;;8.07;6.70;;;11.00;99.90;;;;;;5041744;28;20805;-32
2024/02/12 02:37:50;;;;;;;14.00;7.63;;;11.00;99.90;;;;;;5042166;28;20446;-40
2024/02/12 02:40:16;;;;;;;8.50;6.57;;;11.00;99.90;;;;;;5061593;28;20422;-33
2024/02/12 02:42:44;;;;;;;9.30;7.30;;;11.10;99.90;;;;;;5061150;28;20529;-31
2024/02/12 02:45:10;;;;;;;10.50;7.93;;;11.10;99.90;;;;;;5059460;28;20524;-38
2024/02/12 02:47:55;;;;;;;11.90;8.27;;;11.10;99.90;;;;;;5060046;28;20483;-38
2024/02/12 02:50:21;;;;;;;13.93;7.93;;;11.10;99.90;;;;;;5024923;28;20469;-35
2024/02/12 02:52:50;;;;;;;13.73;8.17;;;11.10;99.90;;;;;;5059182;28;21045;-36
2024/02/12 02:55:19;;;;;;;11.00;8.47;;;11.00;99.90;;;;;;5060469;28;20480;-36
2024/02/12 02:57:45;;;;;;;12.40;7.50;;;11.10;99.90;;;;;;5023449;28;20512;-31
2024/02/12 03:00:12;;;;;;;12.87;9.23;;;11.00;99.90;;;;;;5060324;28;20442;-37
2024/02/12 03:02:39;;;;;;;12.43;8.80;;;11.00;99.90;;;;;;5041998;28;20440;-36
2024/02/12 03:05:06;;;;;;;15.07;8.77;;;11.00;99.90;;;;;;5025751;28;20445;-35
2024/02/12 03:07:36;;;;;;;13.00;9.10;;;11.00;99.90;;;;;;5059904;28;20445;-34
2024/02/12 03:10:03;;;;;;;13.20;8.80;;;11.00;99.90;;;;;;5025384;28;21006;-38
2024/02/12 03:12:32;;;;;;;11.80;8.93;;;11.00;99.90;;;;;;5041535;28;21093;-31
2024/02/12 03:14:59;;;;;;;11.57;8.93;;;11.00;99.90;;;;;;5055896;28;20489;-33
2024/02/12 03:17:28;;;;;;;13.47;9.90;;;11.00;99.90;;;;;;5058502;28;20441;-33
2024/02/12 03:20:02;;;;;;;11.20;9.10;;;11.00;99.90;;;;;;5033522;28;20429;-34
2024/02/12 03:22:28;;;;;;;15.33;9.80;;;11.00;99.90;;;;;;5039715;28;20429;-31
2024/02/12 03:24:56;;;;;;;16.20;10.17;;;11.00;99.90;;;;;;5058518;28;20928;-39
2024/02/12 03:27:23;;;;;;;17.03;10.50;;;11.00;99.90;;;;;;5069381;28;20475;-35
2024/02/12 03:29:51;;;;;;;15.17;10.63;;;11.00;99.90;;;;;;5071900;28;20480;-39
2024/02/12 03:32:17;;;;;;;19.73;11.30;;;11.00;99.90;;;;;;5077796;28;21021;-38
2024/02/12 03:34:43;;;;;;;19.70;12.10;;;11.00;99.90;;;;;;5074316;28;20433;-35
2024/02/12 03:37:09;;;;;;;16.00;11.70;;;11.00;99.90;;;;;;5057068;28;20799;-38
2024/02/12 03:39:35;;;;;;;15.60;11.60;;;11.00;99.90;;;;;;5060417;28;20438;-39
2024/02/12 03:42:01;;;;;;;16.90;11.30;;;11.00;99.90;;;;;;5058960;28;20438;-38
2024/02/12 03:44:27;;;;;;;18.80;11.90;;;11.00;99.90;;;;;;5059107;28;20437;-34
2024/02/12 03:46:55;;;;;;;16.33;11.63;;;11.00;99.90;;;;;;5040595;28;20441;-38
2024/02/12 04:00:30;;;;;;;17.77;12.30;;;11.00;99.90;;;;;;5058938;28;21029;-36
2024/02/12 04:02:58;;;;;;;18.10;12.47;;;11.00;99.90;;;;;;5056458;28;20463;-36
2024/02/12 04:05:24;;;;;;;15.93;11.53;;;11.00;99.90;;;;;;5039511;28;20457;-35
2024/02/12 04:07:50;;;;;;;18.93;13.37;;;11.00;99.90;;;;;;5040706;28;20437;-37
2024/02/12 04:10:16;;;;;;;15.37;11.20;;;11.00;99.90;;;;;;5040078;28;20545;-34
2024/02/12 04:12:47;;;;;;;20.30;13.17;;;11.00;99.90;;;;;;5058317;28;20537;-38
2024/02/12 04:15:20;;;;;;;19.73;12.80;;;11.00;99.90;;;;;;5058101;28;20880;-36
2024/02/12 04:17:46;;;;;;;19.03;13.40;;;11.00;99.90;;;;;;5039735;28;20972;-37
2024/02/12 04:20:15;;;;;;;17.90;13.50;;;10.90;99.90;;;;;;5058349;28;20778;-35
2024/02/12 04:22:41;;;;;;;17.77;12.23;;;11.00;99.90;;;;;;5057577;28;20446;-35
2024/02/12 04:25:10;;;;;;;18.43;13.23;;;11.00;99.90;;;;;;5033420;28;20431;-36
2024/02/12 04:27:36;;;;;;;17.63;13.30;;;11.00;99.90;;;;;;5038564;28;20945;-31
2024/02/12 04:30:06;;;;;;;20.37;13.67;;;11.00;99.90;;;;;;5039413;28;20533;-33
2024/02/12 04:32:33;;;;;;;17.40;13.70;;;10.90;99.90;;;;;;5057454;28;20857;-39
2024/02/12 04:34:59;;;;;;;22.80;14.13;;;11.00;99.90;;;;;;5041392;28;20442;-34
2024/02/12 04:37:25;;;;;;;17.47;12.40;;;11.00;99.90;;;;;;5058261;28;20433;-34
2024/02/12 04:39:52;;;;;;;21.27;13.50;;;11.00;99.90;;;;;;5059493;28;20422;-34
2024/02/12 04:42:21;;;;;;;20.20;13.47;;;10.90;99.90;;;;;;5059182;28;20352;-32
2024/02/12 04:44:49;;;;;;;17.93;12.30;;;10.90;99.90;;;;;;5059769;28;20454;-36
2024/02/12 04:47:16;;;;;;;18.40;13.50;;;10.90;99.90;;;;;;5040684;28;20446;-35
2024/02/12 04:49:43;;;;;;;21.40;13.97;;;10.90;99.90;;;;;;5039074;28;20480;-39
2024/02/12 04:52:09;;;;;;;17.90;13.40;;;11.00;99.90;;;;;;5059890;28;20430;-34
2024/02/12 04:54:36;;;;;;;17.20;12.97;;;10.90;99.90;;;;;;5060769;28;20418;-35
2024/02/12 04:57:03;;;;;;;17.80;12.80;;;10.90;99.90;;;;;;5042070;28;20501;-33
2024/02/12 04:59:30;;;;;;;19.90;13.10;;;10.90;99.90;;;;;;5041844;28;20423;-35
2024/02/12 05:01:56;;;;;;;18.60;13.57;;;10.90;99.90;;;;;;5059752;28;20483;-29
2024/02/12 05:04:22;;;;;;;21.03;12.67;;;10.90;99.90;;;;;;5041409;28;20452;-30
2024/02/12 05:06:50;;;;;;;19.80;12.93;;;10.90;99.90;;;;;;5042589;28;20839;-34
2024/02/12 05:09:15;;;;;;;18.27;12.37;;;10.90;99.90;;;;;;5060076;28;20629;-36
2024/02/12 05:11:42;;;;;;;20.40;13.97;;;10.90;99.90;;;;;;5041508;28;20414;-31
2024/02/12 05:14:10;;;;;;;18.77;12.70;;;10.90;99.90;;;;;;5041752;28;20414;-29
2024/02/12 05:16:37;;;;;;;20.00;12.63;;;10.90;99.90;;;;;;5035264;28;20437;-31
2024/02/12 05:24:36;;;;;;;16.80;11.73;;;10.90;99.90;;;;;;5045478;28;20455;-31
2024/02/12 05:27:02;;;;;;;20.93;13.40;;;10.90;99.90;;;;;;5062157;28;21232;-29
2024/02/12 05:29:29;;;;;;;20.33;13.43;;;10.90;99.90;;;;;;5080045;28;20500;-30
2024/02/12 05:31:57;;;;;;;16.77;12.17;;;10.90;99.90;;;;;;5079254;28;20461;-30
2024/02/12 05:34:23;;;;;;;17.30;12.23;;;10.90;99.90;;;;;;5080108;28;20421;-37
2024/02/12 05:36:53;;;;;;;18.33;13.70;;;10.90;99.90;;;;;;5079853;28;20991;-29
2024/02/12 05:39:21;;;;;;;18.37;12.80;;;10.90;99.90;;;;;;5080178;28;20433;-29
2024/02/12 05:41:48;;;;;;;25.03;14.83;;;10.90;99.90;;;;;;5064440;28;20494;-32
2024/02/12 05:44:16;;;;;;;19.90;13.30;;;10.90;99.90;;;;;;5041395;28;20437;-33
2024/02/12 05:46:42;;;;;;;17.80;14.10;;;10.80;99.90;;;;;;5058756;28;20500;-30
2024/02/12 05:49:09;;;;;;;18.50;12.77;;;10.80;99.90;;;;;;5063011;28;20981;-33
2024/02/12 05:51:38;;;;;;;24.63;13.80;;;10.80;99.90;;;;;;5063162;28;20418;-31
2024/02/12 05:54:04;;;;;;;21.13;14.20;;;10.90;99.90;;;;;;5064122;28;20505;-29
2024/02/12 05:56:31;;;;;;;19.67;12.63;;;10.80;99.90;;;;;;5045523;28;20414;-36
2024/02/12 05:58:57;;;;;;;20.97;13.27;;;10.80;99.90;;;;;;5045539;28;20418;-32
2024/02/12 06:01:24;;;;;;;20.10;13.60;;;10.90;99.90;;;;;;5063841;28;20435;-35
2024/02/12 06:03:50;;;;;;;19.10;13.37;;;10.80;99.90;;;;;;5064224;28;21014;-31
2024/02/12 06:06:16;;;;;;;18.67;13.03;;;10.90;99.90;;;;;;5046128;28;21194;-32
2024/02/12 06:08:45;;;;;;;18.63;13.30;;;10.90;99.90;;;;;;5046251;28;20422;-31
2024/02/12 06:11:11;;;;;;;18.00;13.57;;;10.80;99.90;;;;;;5045872;28;20453;-36
2024/02/12 06:13:37;;;;;;;19.00;13.20;;;10.80;99.90;;;;;;5062881;28;20433;-33
2024/02/12 06:16:04;;;;;;;19.07;12.77;;;10.80;99.90;;;;;;5062854;28;20493;-34
2024/02/12 06:18:32;;;;;;;18.13;14.03;;;10.80;99.90;;;;;;5044107;28;20525;-32
2024/02/12 06:20:58;;;;;;;22.00;14.47;;;10.80;99.90;;;;;;5027842;28;20449;-37
2024/02/12 06:23:25;;;;;;;20.20;14.97;;;10.80;99.90;;;;;;5044224;28;21118;-30
2024/02/12 06:25:51;;;;;;;22.50;14.80;;;10.80;99.90;;;;;;5044147;28;20433;-31
2024/02/12 06:28:19;;;;;;;17.40;13.57;;;10.80;99.90;;;;;;5062154;28;20630;-30
2024/02/12 06:30:47;;;;;;;20.93;14.87;;;10.80;99.90;;;;;;5044034;28;20543;-32
2024/02/12 06:33:13;;;;;;;21.63;14.03;;;10.80;99.90;;;;;;5044347;28;20469;-34
2024/02/12 06:35:39;;;;;;;22.57;14.30;;;10.80;99.90;;;;;;5063344;28;20855;-36
2024/02/12 06:38:05;;;;;;;24.27;15.50;;;10.80;99.90;;;;;;5044974;28;20413;-35
2024/02/12 06:40:31;;;;;;;19.50;14.83;;;10.80;99.90;;;;;;5045058;28;20448;-34
2024/02/12 06:43:03;;;;;;;19.70;14.63;;;10.80;99.90;;;;;;5062829;28;20434;-36
2024/02/12 06:45:29;;;;;;;24.67;16.37;;;10.80;99.90;;;;;;5024987;28;21149;-29
2024/02/12 06:47:55;;;;;;;20.20;14.57;;;10.80;99.90;;;;;;5024414;28;20472;-33
2024/02/12 06:50:23;;;;;;;20.10;14.40;;;10.80;99.90;;;;;;5061324;28;20508;-30
2024/02/12 06:53:09;;;;;;;21.33;15.47;;;10.80;99.90;;;;;;5062121;28;21061;-32
2024/02/12 06:55:35;;;;;;;21.20;15.63;;;10.80;99.90;;;;;;5043830;28;20434;-34
2024/02/12 06:58:03;;;;;;;21.93;15.17;;;10.80;99.90;;;;;;5026197;28;20526;-32
2024/02/12 07:00:31;;;;;;;24.10;15.57;;;10.80;99.90;;;;;;5060973;28;20426;-32
2024/02/12 07:02:59;;;;;;;19.07;14.60;;;10.80;99.90;;;;;;5042181;28;20554;-34
2024/02/12 07:05:25;;;;;;;27.77;16.90;;;10.80;99.90;;;;;;5061543;28;20422;-31
2024/02/12 07:07:51;;;;;;;23.20;15.17;;;10.80;99.90;;;;;;5059655;28;20537;-30
2024/02/12 07:10:20;;;;;;;29.10;16.77;;;10.80;99.90;;;;;;5039175;28;20502;-30
2024/02/12 07:12:46;;;;;;;22.53;16.40;;;10.80;99.90;;;;;;5061778;28;21350;-31
2024/02/12 07:15:15;;;;;;;26.20;15.50;;;10.70;99.90;;;;;;5041875;28;20521;-34
2024/02/12 07:17:47;;;;;;;26.60;17.20;;;10.80;99.90;;;;;;5040620;28;20445;-33
2024/02/12 07:20:13;;;;;;;22.90;15.60;;;10.70;99.90;;;;;;5024805;28;21019;-32
2024/02/12 07:22:39;;;;;;;24.47;16.50;;;10.80;99.90;;;;;;5060199;28;20491;-33
2024/02/12 07:25:05;;;;;;;24.47;16.93;;;10.80;99.90;;;;;;5043163;28;20951;-39
2024/02/12 07:27:34;;;;;;;26.20;17.90;;;10.80;99.90;;;;;;5025898;28;20446;-34
2024/02/12 07:30:00;;;;;;;26.27;16.37;;;10.80;99.90;;;;;;5043037;28;20900;-35
2024/02/12 07:32:26;;;;;;;22.83;15.57;;;10.70;99.90;;;;;;5040524;28;20466;-33
2024/02/12 07:34:57;;;;;;;24.60;16.30;;;10.80;99.90;;;;;;5038030;28;20804;-33
2024/02/12 07:37:25;;;;;;;21.50;15.37;;;10.70;99.90;;;;;;5040886;28;21049;-30
2024/02/12 07:39:55;;;;;;;21.63;15.07;;;10.70;99.90;;;;;;5056684;28;20599;-32
2024/02/12 07:42:22;;;;;;;22.80;17.17;;;10.80;99.90;;;;;;5052555;28;20441;-34
2024/02/12 07:44:48;;;;;;;24.20;16.37;;;10.70;99.90;;;;;;5046366;28;20513;-31
2024/02/12 07:47:14;;;;;;;24.93;15.87;;;10.70;99.90;;;;;;5047897;28;20425;-33
2024/02/12 07:49:40;;;;;;;22.90;14.97;;;10.70;99.90;;;;;;5065271;28;20998;-37
2024/02/12 07:52:08;;;;;;;20.37;14.40;;;10.80;99.90;;;;;;5050440;28;20463;-35
2024/02/12 07:54:35;;;;;;;21.47;16.33;;;10.70;99.90;;;;;;5054136;28;20509;-31
2024/02/12 07:57:01;;;;;;;21.77;15.63;;;10.70;99.90;;;;;;5038598;28;20445;-31
2024/02/12 07:59:27;;;;;;;25.00;15.83;;;10.70;99.90;;;;;;5055553;28;20499;-33
2024/02/12 08:01:54;;;;;;;24.67;13.83;;;10.70;99.90;;;;;;5022613;28;20496;-34
2024/02/12 08:04:20;;;;;;;21.57;14.60;;;10.70;99.90;;;;;;5037199;28;20524;-35
2024/02/12 08:06:46;;;;;;;23.63;16.10;;;10.70;99.90;;;;;;5055643;28;20438;-32
2024/02/12 08:09:17;;;;;;;22.30;14.87;;;10.70;99.90;;;;;;5055724;28;20471;-31
2024/02/12 08:11:50;;;;;;;22.83;14.87;;;10.70;99.90;;;;;;5034650;28;20458;-32
2024/02/12 08:14:16;;;;;;;20.77;14.23;;;10.70;99.90;;;;;;5022184;28;20952;-32
2024/02/12 08:16:45;;;;;;;21.50;15.93;;;10.70;99.90;;;;;;5038814;28;20440;-34
2024/02/12 08:19:11;;;;;;;20.37;14.03;;;10.70;99.90;;;;;;5059132;28;20422;-31
2024/02/12 08:21:37;;;;;;;19.30;13.80;;;10.70;99.90;;;;;;5038908;28;20442;-34
2024/02/12 08:24:04;;;;;;;19.50;14.63;;;10.70;99.90;;;;;;5038604;28;20422;-32
2024/02/12 08:26:30;;;;;;;21.93;14.20;;;10.70;99.90;;;;;;5020759;28;20444;-36
2024/02/12 08:28:58;;;;;;;19.83;14.27;;;10.70;99.90;;;;;;5056159;28;21010;-35
2024/02/12 08:31:24;;;;;;;20.93;14.33;;;10.70;99.90;;;;;;5057802;28;20488;-35
2024/02/12 08:33:50;;;;;;;19.57;15.00;;;10.70;99.90;;;;;;5036829;28;20536;-32
2024/02/12 08:36:17;;;;;;;20.37;13.67;;;10.70;99.90;;;;;;5029817;28;20453;-31
2024/02/12 08:38:43;;;;;;;19.43;13.43;;;10.70;99.90;;;;;;5029856;28;20424;-32
2024/02/12 08:41:22;;;;;;;18.17;13.43;;;10.70;99.90;;;;;;5062280;28;20445;-33
2024/02/12 08:43:58;;;;;;;27.43;14.23;;;10.70;99.90;;;;;;5036980;28;21108;-36
2024/02/12 08:46:24;;;;;;;20.43;14.23;;;10.70;99.90;;;;;;5037107;28;20421;-32
2024/02/12 08:48:51;;;;;;;20.30;14.60;;;10.70;99.90;;;;;;5037466;28;20437;-34
2024/02/12 08:51:18;;;;;;;23.30;13.13;;;10.70;99.90;;;;;;5056174;28;20497;-33
2024/02/12 08:53:49;;;;;;;21.83;13.37;;;10.70;99.90;;;;;;5049488;28;20458;-34
2024/02/12 08:56:17;;;;;;;18.40;13.13;;;10.70;99.90;;;;;;5056363;28;20458;-35
2024/02/12 08:58:44;;;;;;;17.90;13.30;;;10.70;99.90;;;;;;5021196;28;20449;-29
2024/02/12 09:01:11;;;;;;;18.27;13.13;;;10.70;99.90;;;;;;5055705;28;20968;-35
2024/02/12 09:03:59;;;;;;;21.53;13.63;;;10.70;99.90;;;;;;5043996;28;20632;-34
2024/02/12 09:06:25;;;;;;;17.43;13.07;;;10.70;99.90;;;;;;5038276;28;20421;-30
2024/02/12 09:08:51;;;;;;;18.90;12.30;;;10.70;99.90;;;;;;5056167;28;20438;-33
2024/02/12 09:11:20;;;;;;;20.90;13.80;;;10.70;99.90;;;;;;5054740;28;20465;-36
2024/02/12 09:13:46;;;;;;;20.90;15.57;;;10.70;99.90;;;;;;5055613;28;20433;-32
2024/02/12 09:16:13;;;;;;;17.80;12.47;;;10.70;99.90;;;;;;5033166;28;20503;-32
2024/02/12 09:18:39;;;;;;;18.67;13.37;;;10.70;99.90;;;;;;5038198;28;20422;-35
2024/02/12 09:21:05;;;;;;;20.97;14.10;;;10.70;99.90;;;;;;5057150;28;20455;-35
2024/02/12 09:23:32;;;;;;;17.70;13.53;;;10.70;99.90;;;;;;5041840;28;20525;-32
2024/02/12 09:25:59;;;;;;;20.13;13.40;;;10.70;99.90;;;;;;5060956;28;20422;-31
2024/02/12 09:28:28;;;;;;;18.00;12.57;;;10.70;99.90;;;;;;5062428;28;20532;-33
2024/02/12 09:30:57;;;;;;;18.50;13.60;;;10.70;99.90;;;;;;5066385;28;20489;-28
2024/02/12 09:33:25;;;;;;;21.70;13.60;;;10.70;99.90;;;;;;5058434;28;20435;-32
2024/02/12 09:35:51;;;;;;;18.00;13.00;;;10.70;99.90;;;;;;5062877;28;21321;-35
2024/02/12 09:38:18;;;;;;;18.57;13.17;;;10.70;99.90;;;;;;5088545;22;21128;-84
2024/02/12 09:40:46;;;;;;;17.40;11.80;;;10.70;99.90;;;;;;5022409;28;20523;-83
2024/02/12 09:43:13;;;;;;;18.03;11.90;;;10.70;99.90;;;;;;5045474;28;20526;-83
2024/02/12 09:45:44;;;;;;;17.37;12.40;;;10.70;99.90;;;;;;5054922;28;20454;-83
2024/02/12 09:48:14;;;;;;;18.37;13.50;;;10.70;99.90;;;;;;5054642;28;20480;-83
2024/02/12 09:50:46;;;;;;;17.30;12.87;;;10.70;99.90;;;;;;5045792;28;20469;-84
2024/02/12 09:53:15;;;;;;;16.93;12.50;;;10.70;99.90;;;;;;5045139;28;20442;-82
2024/02/12 09:55:48;;;;;;;17.10;11.37;;;10.70;99.90;;;;;;5038012;28;20481;-83
2024/02/12 09:58:19;;;;;;;18.87;11.93;;;10.70;99.90;;;;;;5032687;28;20515;-83
2024/02/12 10:00:46;;;;;;;15.93;11.80;;;10.70;99.90;;;;;;5047073;28;20514;-84
2024/02/12 10:03:24;;;;;;;17.27;11.70;;;10.60;99.90;;;;;;5082433;22;20483;-27
2024/02/12 10:06:13;;;;;;;13.60;11.30;;;10.70;99.90;;;;;;5114444;27;20419;-30
2024/02/12 10:09:12;;;;;;;17.77;12.90;;;10.70;99.90;;;;;;5093382;28;20396;-28
2024/02/12 10:12:07;;;;;;;17.40;11.17;;;10.70;99.90;;;;;;5083027;28;20542;-27
2024/02/12 10:14:53;;;;;;;17.63;11.87;;;10.70;99.90;;;;;;5051662;28;20502;-25
2024/02/12 10:17:40;;;;;;;15.33;10.93;;;10.70;99.90;;;;;;5078355;28;20452;-29
2024/02/12 10:20:26;;;;;;;14.10;10.20;;;10.70;99.90;;;;;;5097386;28;20922;-29
2024/02/12 10:23:12;;;;;;;16.20;10.57;;;10.70;99.90;;;;;;5062763;28;20435;-29
2024/02/12 10:25:58;;;;;;;16.10;10.87;;;10.70;99.90;;;;;;5085778;28;21282;-28
2024/02/12 10:28:54;;;;;;;14.57;9.83;;;10.70;99.90;;;;;;5075675;28;20487;-27
2024/02/12 10:31:40;;;;;;;14.33;10.07;;;10.70;99.90;;;;;;5062307;28;20444;-30
2024/02/12 10:34:30;;;;;;;15.47;10.50;;;10.70;99.90;;;;;;5054595;28;20538;-28
2024/02/12 10:37:23;;;;;;;13.73;9.93;;;10.70;99.90;;;;;;5076946;28;20431;-27
2024/02/12 10:40:13;;;;;;;15.10;10.40;;;10.70;99.90;;;;;;5074878;28;20429;-29
2024/02/12 10:43:03;;;;;;;15.13;11.13;;;10.70;99.90;;;;;;5050416;28;20479;-30
2024/02/12 10:45:53;;;;;;;14.57;9.97;;;10.70;99.90;;;;;;5076412;28;20425;-28
2024/02/12 10:48:43;;;;;;;14.20;10.57;;;10.70;99.90;;;;;;5053123;28;20481;-29
2024/02/12 10:51:30;;;;;;;12.67;10.20;;;10.70;99.90;;;;;;5045705;28;20957;-28
2024/02/12 10:54:16;;;;;;;12.83;8.77;;;10.80;99.90;;;;;;5063489;28;20428;-27
2024/02/12 10:56:43;;;;;;;15.40;9.90;;;10.80;99.90;;;;;;5073051;28;20452;-26
2024/02/12 10:59:13;;;;;;;16.90;10.30;;;10.80;99.90;;;;;;5056029;28;20436;-27
2024/02/12 11:01:40;;;;;;;12.70;9.40;;;10.80;99.90;;;;;;5082149;28;21029;-29
2024/02/12 11:04:15;;;;;;;13.37;8.50;;;10.70;99.90;;;;;;5091985;28;20432;-29
2024/02/12 11:06:42;;;;;;;9.63;8.07;;;10.80;99.90;;;;;;5096642;28;20786;-29
2024/02/12 11:09:11;;;;;;;11.10;8.57;;;10.80;99.90;;;;;;5070767;28;20945;-27
2024/02/12 11:11:46;;;;;;;10.80;8.87;;;10.80;99.90;;;;;;5073485;28;20496;-26
2024/02/12 11:14:18;;;;;;;14.93;9.53;;;10.80;99.90;;;;;;5051057;28;20419;-25
2024/02/12 11:16:51;;;;;;;11.80;8.10;;;10.80;99.90;;;;;;5068421;28;20432;-26
2024/02/12 11:19:22;;;;;;;12.40;8.13;;;10.80;99.90;;;;;;5090131;28;20428;-26
2024/02/12 11:21:54;;;;;;;11.00;8.00;;;10.80;99.90;;;;;;5044826;28;20915;-31
2024/02/12 11:24:22;;;;;;;10.03;8.30;;;10.80;99.90;;;;;;5084430;28;20409;-27
2024/02/12 11:26:52;;;;;;;11.93;8.13;;;10.90;99.90;;;;;;5090890;28;20448;-26
2024/02/12 11:29:19;;;;;;;8.00;7.20;;;10.80;99.90;;;;;;5071208;28;21211;-26
2024/02/12 11:31:48;;;;;;;8.93;7.43;;;10.90;99.90;;;;;;5080562;28;20517;-26
2024/02/12 11:34:17;;;;;;;13.83;8.30;;;10.90;99.90;;;;;;5076073;28;20428;-28
2024/02/12 11:36:45;;;;;;;13.70;7.60;;;10.90;99.90;;;;;;5084467;28;21177;-26
2024/02/12 11:39:12;;;;;;;9.53;7.60;;;10.90;99.90;;;;;;5086175;28;20428;-25
2024/02/12 11:41:38;;;;;;;10.50;7.20;;;10.90;99.90;;;;;;5092261;28;21463;-28
2024/02/12 11:44:05;;;;;;;10.23;7.40;;;10.90;99.90;;;;;;5039918;28;20426;-25
2024/02/12 11:46:38;;;;;;;10.77;7.77;;;10.90;99.90;;;;;;5082600;28;20439;-28
2024/02/12 11:49:07;;;;;;;9.50;6.90;;;10.90;99.90;;;;;;5086040;28;20862;-26
2024/02/12 11:51:38;;;;;;;13.27;7.23;;;10.90;99.90;;;;;;5053907;28;20470;-26
2024/02/12 11:54:09;;;;;;;8.93;7.00;;;11.00;99.90;;;;;;5073336;28;20439;-26
2024/02/12 11:56:37;;;;;;;12.97;6.33;;;11.00;99.90;;;;;;5067314;28;20413;-27
2024/02/12 11:59:04;;;;;;;11.40;7.20;;;10.90;99.90;;;;;;5063578;28;20439;-28
2024/02/12 12:01:35;;;;;;;8.87;6.80;;;11.00;99.90;;;;;;5071003;28;20480;-26
2024/02/12 12:04:01;;;;;;;9.60;7.43;;;11.00;99.90;;;;;;5087434;28;21396;-26
2024/02/12 12:06:33;;;;;;;7.40;6.57;;;11.00;99.90;;;;;;5071855;28;20424;-27
2024/02/12 12:08:59;;;;;;;9.47;6.73;;;11.00;99.90;;;;;;5071287;28;20929;-26
2024/02/12 12:11:26;;;;;;;8.47;6.20;;;11.00;99.90;;;;;;5092780;28;20570;-27
2024/02/12 12:14:03;;;;;;;11.33;7.30;;;11.00;99.90;;;;;;5064941;28;20440;-26
2024/02/12 12:16:32;;;;;;;8.27;6.37;;;11.00;99.90;;;;;;5075739;28;20420;-28
2024/02/12 12:19:04;;;;;;;8.53;6.87;;;11.00;99.90;;;;;;5088062;28;21326;-26
2024/02/12 12:21:35;;;;;;;10.40;6.80;;;11.00;99.90;;;;;;5088938;28;20447;-29
2024/02/12 12:24:03;;;;;;;9.70;6.90;;;11.00;99.90;;;;;;5063990;28;20510;-29
2024/02/12 12:26:30;;;;;;;7.80;6.13;;;11.10;99.90;;;;;;5040013;28;20433;-26
2024/02/12 12:28:56;;;;;;;9.50;6.60;;;11.00;99.90;;;;;;5059685;28;20969;-26
2024/02/12 12:31:24;;;;;;;8.23;6.87;;;11.00;99.90;;;;;;5083630;28;20499;-29
2024/02/12 12:33:51;;;;;;;8.77;6.80;;;11.00;99.90;;;;;;5070297;28;20441;-26
2024/02/12 12:36:20;;;;;;;7.90;6.33;;;11.10;99.90;;;;;;5065152;28;20529;-28
2024/02/12 12:38:46;;;;;;;9.80;6.20;;;11.10;99.90;;;;;;5084597;28;20519;-28
2024/02/12 12:41:12;;;;;;;8.63;6.47;;;11.10;99.90;;;;;;5089875;28;20431;-29
2024/02/12 12:43:38;;;;;;;9.13;6.80;;;11.10;99.90;;;;;;5064999;28;20508;-26
2024/02/12 12:46:07;;;;;;;6.70;6.00;;;11.10;99.90;;;;;;5079281;28;20573;-26
2024/02/12 12:48:49;;;;;;;8.30;5.67;;;11.10;99.90;;;;;;5069363;28;20436;-27
2024/02/12 12:51:15;;;;;;;6.70;5.33;;;11.10;99.90;;;;;;5061346;28;20468;-27
2024/02/12 12:53:41;;;;;;;10.30;5.67;;;11.10;99.90;;;;;;5069585;28;20451;-27
2024/02/12 12:56:07;;;;;;;6.70;6.00;;;11.10;99.90;;;;;;5085865;28;20432;-26
2024/02/12 12:58:34;;;;;;;9.20;5.43;;;11.10;99.90;;;;;;5061607;28;20432;-29
2024/02/12 13:01:00;;;;;;;12.03;5.67;;;11.10;99.90;;;;;;5065339;28;20842;-27